Time;durP1;ratioP1;P1;durP2;ratioP2;P2;SDS_P1;SDS_P2;PMS_P1;PMS_P2;Temp;Humidity;BMP_temperature;BMP_pressure;BME280_temperature;BME280_humidity;BME280_pressure;Samples;Min_cycle;Max_cycle;Signal;HPM_P1;HPM_P2
2022/08/17 00:01:29;;;;;;;6.80;6.40;;;;;;;20.14;73.90;100402.25;6051430;23;20011;-74
2022/08/17 00:04:17;;;;;;;7.05;6.55;;;;;;;20.90;74.98;100519.22;6083083;23;20017;-75
2022/08/17 00:06:44;;;;;;;6.88;6.47;;;;;;;20.06;74.99;100378.19;6053268;23;20018;-75
2022/08/17 00:09:13;;;;;;;8.25;7.75;;;;;;;20.03;75.86;100386.47;6083162;23;20495;-75
2022/08/17 00:11:46;;;;;;;6.63;6.22;;;;;;;20.99;76.32;100561.97;6039067;23;20558;-74
2022/08/17 00:14:33;;;;;;;6.60;6.20;;;;;;;20.94;76.97;100562.44;6078572;23;20069;-75
2022/08/17 00:17:02;;;;;;;7.72;7.20;;;;;;;20.91;77.33;100562.75;6029541;23;20789;-74
2022/08/17 00:19:31;;;;;;;7.78;7.07;;;;;;;20.46;77.54;100492.38;6084973;23;20248;-75
2022/08/17 00:21:59;;;;;;;7.35;6.85;;;;;;;19.44;77.96;100338.78;6035875;23;20025;-74
2022/08/17 00:24:45;;;;;;;7.30;6.70;;;;;;;19.88;78.02;100410.09;6094117;23;20099;-77
2022/08/17 00:27:12;;;;;;;8.05;7.55;;;;;;;20.30;77.79;100477.03;6053058;23;20030;-76
2022/08/17 00:29:38;;;;;;;6.78;6.38;;;;;;;20.60;77.85;100528.41;6086194;23;20101;-75
2022/08/17 00:32:05;;;;;;;8.23;7.63;;;;;;;20.12;77.51;100449.50;5996685;23;20055;-76
2022/08/17 00:34:51;;;;;;;7.60;7.10;;;;;;;20.65;77.65;100547.47;6033604;23;20019;-75
2022/08/17 00:37:18;;;;;;;7.53;6.88;;;;;;;20.60;78.28;100524.91;6001341;23;20015;-74
2022/08/17 00:39:44;;;;;;;7.00;6.53;;;;;;;20.30;78.31;100485.03;6029322;23;20018;-76
2022/08/17 00:42:16;;;;;;;8.32;7.75;;;;;;;20.30;78.28;100495.69;5991192;23;20027;-75
2022/08/17 00:44:43;;;;;;;7.27;6.67;;;;;;;20.25;78.81;100487.31;6025791;23;20459;-75
2022/08/17 00:47:09;;;;;;;9.43;8.63;;;;;;;20.31;79.88;100510.72;5998634;23;20023;-76
2022/08/17 00:49:36;;;;;;;7.70;7.13;;;;;;;20.53;79.97;100553.97;6028576;23;20021;-75
2022/08/17 00:52:09;;;;;;;8.80;8.20;;;;;;;19.92;80.77;100454.94;5995047;23;20082;-77
2022/08/17 00:54:41;;;;;;;7.63;6.93;;;;;;;19.91;81.20;100463.91;6052375;23;20033;-75
2022/08/17 00:57:20;;;;;;;8.50;7.95;;;;;;;19.98;81.92;100492.63;5992874;23;20055;-76
2022/08/17 01:04:59;;;;;;;7.80;7.32;;;;;;;19.84;83.28;100500.09;6048084;23;20026;-76
2022/08/17 01:07:26;;;;;;;7.30;6.82;;;;;;;19.83;82.97;100490.44;6056814;23;20007;-76
2022/08/17 01:09:53;;;;;;;6.90;6.40;;;;;;;19.99;82.92;100518.28;6087557;23;20030;-76
2022/08/17 01:12:20;;;;;;;6.93;6.47;;;;;;;19.69;82.64;100461.59;6051078;23;20022;-76
2022/08/17 01:14:47;;;;;;;6.97;6.47;;;;;;;19.48;83.14;100441.34;6065623;23;20183;-76
2022/08/17 01:17:13;;;;;;;7.57;7.07;;;;;;;19.58;83.51;100477.72;6051933;23;20458;-77
2022/08/17 01:19:41;;;;;;;7.93;7.32;;;;;;;19.93;84.41;100530.34;6060487;23;20260;-76
2022/08/17 01:22:07;;;;;;;8.43;7.63;;;;;;;19.92;84.03;100526.00;6053688;23;20514;-76
2022/08/17 01:24:38;;;;;;;7.90;7.30;;;;;;;19.89;83.64;100547.63;6062187;23;20013;-76
2022/08/17 01:27:05;;;;;;;8.65;8.05;;;;;;;19.88;83.79;100537.94;6055665;23;20358;-75
2022/08/17 01:29:38;;;;;;;7.63;7.07;;;;;;;19.50;83.94;100481.97;6057957;23;20452;-75
2022/08/17 01:32:06;;;;;;;8.02;7.50;;;;;;;19.55;83.90;100502.81;6051159;23;20033;-76
2022/08/17 01:34:34;;;;;;;7.45;6.95;;;;;;;19.84;83.90;100532.03;6055086;23;20010;-77
2022/08/17 01:37:11;;;;;;;8.43;7.93;;;;;;;19.53;84.30;100499.47;6015769;23;20037;-77
2022/08/17 01:39:43;;;;;;;7.00;6.50;;;;;;;18.42;84.46;100317.28;6050548;23;20100;-78
2022/08/17 01:42:14;;;;;;;;;;;;;;;19.80;84.52;100535.97;6055581;23;20042;-77
2022/08/17 01:44:43;;;;;;;7.30;6.70;;;;;;;19.78;84.29;100532.63;6035507;23;20071;-76
2022/08/17 01:47:09;;;;;;;9.15;8.30;;;;;;;19.60;84.10;100497.03;6058852;23;20049;-77
2022/08/17 01:49:38;;;;;;;7.43;6.82;;;;;;;19.00;83.95;100405.00;6041322;23;20030;-77
2022/08/17 01:52:08;;;;;;;8.48;7.88;;;;;;;19.79;83.92;100536.16;6030693;23;20093;-77
2022/08/17 01:54:38;;;;;;;7.15;6.55;;;;;;;19.64;83.85;100506.44;6067478;23;20175;-76
2022/08/17 01:57:04;;;;;;;7.55;7.05;;;;;;;19.64;84.08;100501.94;6063066;23;20195;-77
2022/08/17 01:59:32;;;;;;;7.38;6.88;;;;;;;18.13;83.85;100281.78;6067565;23;20248;-77
2022/08/17 02:01:59;;;;;;;7.38;6.88;;;;;;;19.30;84.78;100470.50;6057355;23;20064;-77
2022/08/17 02:04:25;;;;;;;7.78;7.18;;;;;;;19.29;84.85;100454.69;6051508;23;20020;-77
2022/08/17 02:06:52;;;;;;;7.93;7.32;;;;;;;18.96;85.51;100410.75;6063359;23;20044;-77
2022/08/17 02:09:22;;;;;;;7.55;6.90;;;;;;;19.73;86.00;100518.91;6033523;23;20288;-76
2022/08/17 02:11:55;;;;;;;10.95;7.82;;;;;;;19.75;85.71;100516.94;6052533;23;20022;-77
2022/08/17 02:14:23;;;;;;;8.63;7.82;;;;;;;19.77;85.84;100516.81;6058867;23;20083;-77
2022/08/17 02:16:51;;;;;;;7.68;7.07;;;;;;;19.53;85.24;100476.34;6030438;23;20038;-77
2022/08/17 02:19:17;;;;;;;7.47;6.97;;;;;;;18.95;84.74;100372.69;6065333;23;20097;-77
2022/08/17 02:21:46;;;;;;;7.43;6.93;;;;;;;19.87;85.02;100515.78;6053763;23;20034;-76
2022/08/17 02:24:30;;;;;;;8.68;7.97;;;;;;;19.59;84.33;100471.44;6055254;23;20030;-76
2022/08/17 02:27:17;;;;;;;8.00;7.40;;;;;;;19.93;83.65;100515.22;6064717;23;20410;-76
2022/08/17 02:29:43;;;;;;;7.45;6.80;;;;;;;19.73;83.93;100490.47;6033853;23;20171;-76
2022/08/17 02:32:23;;;;;;;8.98;8.27;;;;;;;19.44;84.01;100452.41;6064877;23;20045;-76
2022/08/17 02:34:53;;;;;;;7.82;7.05;;;;;;;19.19;84.19;100414.78;6055155;23;20331;-76
2022/08/17 02:37:20;;;;;;;7.63;7.07;;;;;;;19.79;83.83;100510.34;6057223;23;21168;-76
2022/08/17 02:39:46;;;;;;;7.30;6.80;;;;;;;19.47;83.13;100462.78;6063190;23;20425;-76
2022/08/17 02:42:13;;;;;;;8.07;7.47;;;;;;;19.81;83.05;100504.88;6026356;23;20195;-76
2022/08/17 02:44:40;;;;;;;7.60;6.90;;;;;;;19.54;82.67;100455.88;6061959;23;20095;-77
2022/08/17 02:47:09;;;;;;;8.45;7.75;;;;;;;19.86;81.49;100500.78;6040092;23;20175;-76
2022/08/17 02:49:38;;;;;;;6.97;6.57;;;;;;;19.89;81.57;100508.50;6063780;23;20030;-76
2022/08/17 02:52:06;;;;;;;10.98;7.10;;;;;;;19.63;81.19;100455.00;6055042;23;20018;-75
2022/08/17 02:54:34;;;;;;;7.38;6.82;;;;;;;18.46;81.00;100262.88;6055485;23;20491;-76
2022/08/17 02:57:06;;;;;;;8.07;7.47;;;;;;;19.88;81.06;100495.31;6038533;23;20435;-76
2022/08/17 02:59:32;;;;;;;7.30;6.78;;;;;;;18.37;80.53;100264.56;6056484;23;20438;-78
2022/08/17 03:01:59;;;;;;;7.43;6.85;;;;;;;19.90;80.89;100491.50;6058145;23;20096;-75
2022/08/17 03:04:25;;;;;;;7.40;6.93;;;;;;;19.92;80.48;100481.59;6058226;23;20300;-76
2022/08/17 03:06:52;;;;;;;7.35;6.68;;;;;;;19.91;80.39;100493.22;6051573;23;20267;-76
2022/08/17 03:09:18;;;;;;;7.00;6.40;;;;;;;19.93;80.27;100493.91;6068562;23;20388;-76
2022/08/17 03:14:21;;;;;;;7.10;6.60;;;;;;;19.56;80.60;100424.63;6055330;23;21205;-76
2022/08/17 03:16:51;;;;;;;8.93;6.68;;;;;;;19.60;80.26;100457.13;6060338;23;20466;-75
2022/08/17 03:19:18;;;;;;;7.53;6.93;;;;;;;19.93;80.08;100487.75;6061352;23;20487;-75
2022/08/17 03:21:44;;;;;;;7.10;6.60;;;;;;;19.96;79.41;100483.94;6065840;23;20101;-75
2022/08/17 03:24:10;;;;;;;8.48;7.88;;;;;;;19.92;79.23;100491.38;6029693;23;20032;-75
2022/08/17 03:26:37;;;;;;;7.57;6.93;;;;;;;19.90;79.94;100488.03;6064706;23;20018;-76
2022/08/17 03:29:03;;;;;;;8.00;7.40;;;;;;;19.45;79.37;100408.84;6024400;23;20085;-75
2022/08/17 03:31:30;;;;;;;7.13;6.53;;;;;;;19.93;79.38;100477.91;6068379;23;20024;-75
2022/08/17 03:33:56;;;;;;;7.47;6.88;;;;;;;19.37;79.41;100396.25;6042496;23;20032;-76
2022/08/17 03:36:24;;;;;;;8.27;6.65;;;;;;;19.80;79.54;100480.06;6088395;23;20044;-75
2022/08/17 03:38:50;;;;;;;7.00;6.55;;;;;;;19.06;80.21;100369.88;6032032;23;20034;-75
2022/08/17 03:41:16;;;;;;;8.52;7.93;;;;;;;19.52;80.20;100479.13;6083268;23;20170;-75
2022/08/17 03:43:43;;;;;;;6.50;6.10;;;;;;;19.59;80.63;100485.56;6054620;23;20026;-75
2022/08/17 03:57:26;;;;;;;6.63;6.20;;;;;;;19.46;80.66;100490.34;6078202;23;20014;-75
2022/08/17 03:59:53;;;;;;;9.02;6.38;;;;;;;19.48;80.56;100488.38;6059267;23;20040;-75
2022/08/17 04:02:28;;;;;;;7.00;6.32;;;;;;;19.48;80.73;100483.94;6080441;23;20092;-75
2022/08/17 04:04:55;;;;;;;6.75;6.35;;;;;;;19.37;80.11;100454.78;6057796;23;20022;-76
2022/08/17 04:07:26;;;;;;;7.13;6.53;;;;;;;19.18;79.69;100402.44;6085750;23;20246;-76
2022/08/17 04:09:53;;;;;;;6.55;6.05;;;;;;;19.59;79.26;100474.09;6053729;23;20025;-76
2022/08/17 04:12:21;;;;;;;6.78;6.18;;;;;;;19.62;78.83;100481.78;6058766;23;20046;-75
2022/08/17 04:14:48;;;;;;;7.30;6.80;;;;;;;19.11;79.22;100418.16;6053372;23;20023;-76
2022/08/17 04:17:26;;;;;;;6.60;6.20;;;;;;;19.65;78.78;100494.81;6076846;23;20014;-76
2022/08/17 04:19:54;;;;;;;6.55;6.15;;;;;;;19.73;78.33;100492.28;6062017;23;20281;-75
2022/08/17 04:22:21;;;;;;;8.52;6.50;;;;;;;19.67;78.14;100484.84;6082110;23;20052;-75
2022/08/17 04:25:17;;;;;;;6.65;6.25;;;;;;;19.84;77.14;100494.75;6055137;23;20026;-76
2022/08/17 04:27:43;;;;;;;6.18;5.80;;;;;;;19.41;76.52;100423.44;6085518;23;20024;-76
2022/08/17 04:30:11;;;;;;;7.65;7.07;;;;;;;19.60;76.46;100470.44;6051684;23;20280;-79
2022/08/17 04:32:56;;;;;;;6.68;6.28;;;;;;;19.94;76.20;100500.06;6089761;23;20085;-78
2022/08/17 04:35:34;;;;;;;7.22;6.72;;;;;;;19.38;76.07;100403.25;6055925;23;20068;-79
2022/08/17 04:38:01;;;;;;;6.85;6.45;;;;;;;19.87;74.76;100465.19;6069934;23;20251;-79
2022/08/17 04:43:15;;;;;;;7.28;6.78;;;;;;;20.17;73.81;100508.53;6076478;23;20092;-77
2022/08/17 04:45:54;;;;;;;6.70;6.20;;;;;;;20.23;73.47;100505.28;6054217;23;20014;-78
2022/08/17 04:48:25;;;;;;;6.78;5.95;;;;;;;20.27;73.29;100500.50;6086138;23;20101;-78
2022/08/17 04:51:09;;;;;;;7.45;6.90;;;;;;;20.28;73.03;100497.66;6038888;23;20022;-77
2022/08/17 04:53:37;;;;;;;6.22;5.82;;;;;;;19.60;72.61;100383.41;6086861;23;20021;-78
2022/08/17 04:56:04;;;;;;;7.50;7.10;;;;;;;19.93;72.76;100429.97;6059400;23;20030;-78
2022/08/17 04:58:30;;;;;;;6.30;5.90;;;;;;;19.59;72.14;100375.59;6088068;23;20624;-78
2022/08/17 05:00:57;;;;;;;6.35;5.95;;;;;;;20.43;72.36;100526.53;6057936;23;20093;-78
2022/08/17 05:03:23;;;;;;;6.45;6.05;;;;;;;20.45;71.82;100529.88;6085439;23;20089;-77
2022/08/17 05:05:50;;;;;;;6.43;6.03;;;;;;;20.28;71.97;100487.00;6052952;23;20090;-79
2022/08/17 05:08:18;;;;;;;7.07;6.57;;;;;;;20.02;71.78;100448.72;6092820;23;20245;-79
2022/08/17 05:10:46;;;;;;;6.85;6.22;;;;;;;20.16;72.18;100469.53;6053531;23;20022;-78
2022/08/17 05:13:19;;;;;;;6.97;6.57;;;;;;;20.38;71.46;100486.97;6074385;23;20534;-79
2022/08/17 05:15:48;;;;;;;6.78;6.35;;;;;;;20.46;71.04;100494.22;6051732;23;20487;-78
2022/08/17 05:18:16;;;;;;;6.53;6.15;;;;;;;19.33;71.05;100291.09;6082805;23;20335;-78
2022/08/17 05:20:43;;;;;;;6.45;6.03;;;;;;;20.53;70.63;100492.63;6054166;23;20036;-79
2022/08/17 05:23:13;;;;;;;7.43;7.00;;;;;;;20.67;71.00;100494.00;6076712;23;20162;-80
2022/08/17 05:25:44;;;;;;;6.40;6.00;;;;;;;20.73;70.77;100496.06;6054534;23;20047;-80
2022/08/17 05:28:15;;;;;;;7.20;6.80;;;;;;;19.92;70.11;100353.75;6074429;23;20229;-79
2022/08/17 05:30:43;;;;;;;6.25;5.95;;;;;;;20.85;69.90;100496.66;6051557;23;20089;-78
2022/08/17 05:33:13;;;;;;;7.88;7.15;;;;;;;20.77;69.34;100476.09;6073692;23;20026;-79
2022/08/17 05:35:43;;;;;;;6.28;5.93;;;;;;;20.99;68.83;100501.47;6025253;23;20025;-79
2022/08/17 05:38:09;;;;;;;7.30;6.88;;;;;;;20.25;68.33;100358.59;6069982;23;20152;-78
2022/08/17 05:40:37;;;;;;;6.10;5.70;;;;;;;21.14;68.79;100508.94;6053495;23;20030;-79
2022/08/17 05:43:08;;;;;;;7.40;6.90;;;;;;;21.25;67.33;100544.25;6073878;23;20026;-77
2022/08/17 05:45:38;;;;;;;6.80;6.28;;;;;;;21.25;69.16;100554.09;6054469;23;20015;-78
2022/08/17 05:48:23;;;;;;;6.85;6.45;;;;;;;20.37;72.41;100408.00;6078892;23;20042;-80
2022/08/17 05:51:26;;;;;;;7.40;6.90;;;;;;;21.25;70.92;100570.09;6047672;23;20018;-77
2022/08/17 05:54:27;;;;;;;6.85;6.45;;;;;;;21.18;72.49;100569.84;6055887;23;20195;-79
2022/08/17 05:57:31;;;;;;;6.57;6.18;;;;;;;21.19;72.94;100568.00;6093834;23;20536;-79
2022/08/17 06:00:17;;;;;;;7.18;6.70;;;;;;;20.91;73.34;100501.41;6051965;23;20018;-78
2022/08/17 06:03:13;;;;;;;6.60;6.20;;;;;;;21.36;71.75;100548.50;6079824;23;20052;-78
2022/08/17 06:06:08;;;;;;;9.82;6.78;;;;;;;21.51;72.37;100538.97;6051719;23;20026;-78
2022/08/17 06:09:09;;;;;;;6.93;6.38;;;;;;;21.68;72.23;100533.75;6077072;23;20085;-78
2022/08/17 06:11:42;;;;;;;6.88;6.40;;;;;;;21.76;72.40;100531.13;6049274;23;20045;-79
2022/08/17 06:14:37;;;;;;;7.38;6.88;;;;;;;21.93;72.25;100529.41;6049059;23;20033;-78
2022/08/17 06:17:09;;;;;;;7.40;6.90;;;;;;;22.07;71.18;100519.94;6078008;23;20022;-79
2022/08/17 06:19:53;;;;;;;7.18;6.68;;;;;;;21.73;70.63;100446.00;6047762;23;20526;-78
2022/08/17 06:22:22;;;;;;;6.68;6.28;;;;;;;22.18;70.22;100492.94;6048400;23;20753;-79
2022/08/17 06:24:55;;;;;;;7.10;6.50;;;;;;;22.42;69.39;100526.16;6055438;23;20021;-80
2022/08/17 06:27:35;;;;;;;6.68;6.15;;;;;;;22.54;69.45;100524.03;6072368;23;20528;-78
2022/08/17 06:30:10;;;;;;;7.28;6.88;;;;;;;22.54;69.03;100524.88;6053640;23;20026;-76
2022/08/17 06:32:39;;;;;;;6.70;6.30;;;;;;;21.87;68.85;100424.00;6058493;23;20026;-77
2022/08/17 06:35:08;;;;;;;7.47;6.97;;;;;;;22.54;69.47;100532.06;6080238;23;20018;-79
2022/08/17 06:37:48;;;;;;;7.18;6.68;;;;;;;22.62;69.92;100519.53;6055209;23;20020;-77
2022/08/17 06:40:36;;;;;;;6.88;6.47;;;;;;;22.79;69.29;100535.63;6084983;23;20018;-78
2022/08/17 06:43:18;;;;;;;7.97;7.38;;;;;;;22.85;70.11;100543.84;6021668;23;20026;-78
2022/08/17 06:45:49;;;;;;;6.72;6.32;;;;;;;22.91;69.18;100547.69;6079973;23;20045;-78
2022/08/17 06:48:26;;;;;;;7.45;6.75;;;;;;;23.00;69.36;100556.59;6057520;23;20038;-78
2022/08/17 06:51:06;;;;;;;6.78;6.38;;;;;;;23.06;69.42;100559.47;6081648;23;20388;-77
2022/08/17 06:53:41;;;;;;;7.55;6.95;;;;;;;23.08;69.96;100567.34;6050878;23;20093;-77
2022/08/17 06:56:20;;;;;;;7.30;6.80;;;;;;;23.07;70.09;100550.44;6081593;23;20619;-77
2022/08/17 06:58:47;;;;;;;6.70;6.30;;;;;;;23.07;69.74;100558.47;6057749;23;20025;-78
2022/08/17 07:01:19;;;;;;;7.80;7.30;;;;;;;22.62;69.46;100481.25;6061059;23;20090;-79
2022/08/17 07:03:57;;;;;;;;;;;;;;;23.09;68.90;100547.59;6054938;23;20022;-77
2022/08/17 07:06:41;;;;;;;7.38;6.70;;;;;;;23.18;69.84;100553.81;6084811;23;19914;-77
2022/08/17 07:09:17;;;;;;;8.40;7.20;;;;;;;22.43;69.84;100407.50;6029657;23;20182;-78
2022/08/17 07:12:01;;;;;;;6.55;6.15;;;;;;;22.96;69.49;100486.50;6090366;23;20431;-77
2022/08/17 07:14:38;;;;;;;6.93;6.45;;;;;;;23.42;68.44;100548.44;6022000;23;20018;-77
2022/08/17 07:17:12;;;;;;;7.60;7.13;;;;;;;23.19;69.00;100493.88;6023109;23;20477;-78
2022/08/17 07:19:41;;;;;;;7.57;6.97;;;;;;;23.58;68.47;100552.97;6023136;23;20433;-78
2022/08/17 07:22:19;;;;;;;8.18;7.68;;;;;;;23.55;68.14;100541.75;6023973;23;20164;-79
2022/08/17 07:24:51;;;;;;;7.47;6.88;;;;;;;23.62;67.88;100538.22;6050557;23;20109;-78
2022/08/17 07:27:29;;;;;;;7.57;6.90;;;;;;;23.41;68.01;100538.72;6020092;23;20090;-79
2022/08/17 07:30:10;;;;;;;8.02;7.30;;;;;;;23.33;69.42;100540.56;6053272;23;20033;-79
2022/08/17 07:32:44;;;;;;;7.53;6.93;;;;;;;23.37;68.36;100501.75;6018824;23;20206;-79
2022/08/17 07:35:19;;;;;;;8.10;7.60;;;;;;;23.87;68.95;100549.78;6045281;23;20030;-78
2022/08/17 07:38:05;;;;;;;7.20;6.70;;;;;;;24.01;68.44;100548.22;6024038;23;20422;-77
2022/08/17 07:40:59;;;;;;;7.05;6.63;;;;;;;24.19;66.79;100580.19;6024211;23;20034;-78
2022/08/17 07:43:30;;;;;;;7.78;7.25;;;;;;;24.34;67.05;100574.13;6005834;23;20325;-79
2022/08/17 07:48:48;;;;;;;8.63;7.88;;;;;;;23.19;65.95;100397.50;6019318;23;20031;-77
2022/08/17 07:51:24;;;;;;;7.78;7.28;;;;;;;24.27;65.60;100580.16;6038718;23;20042;-76
2022/08/17 07:53:52;;;;;;;7.40;6.80;;;;;;;24.13;65.33;100564.78;6021462;23;21970;-76
2022/08/17 07:56:43;;;;;;;8.07;7.28;;;;;;;23.46;67.72;100503.44;6053930;23;20031;-77
2022/08/17 07:59:11;;;;;;;9.02;8.38;;;;;;;23.97;67.63;100587.09;5990209;23;20097;-77
2022/08/17 08:01:43;;;;;;;8.23;7.43;;;;;;;24.11;66.86;100584.75;6055399;23;20319;-76
2022/08/17 08:04:28;;;;;;;8.68;8.07;;;;;;;24.21;65.54;100588.88;5969435;23;20118;-77
2022/08/17 08:07:19;;;;;;;8.40;7.60;;;;;;;24.47;65.44;100593.16;6046047;23;20300;-77
2022/08/17 08:10:00;;;;;;;7.47;6.88;;;;;;;24.34;65.05;100577.63;6023377;23;20022;-76
2022/08/17 08:12:38;;;;;;;7.82;7.18;;;;;;;24.73;64.54;100587.56;6055748;23;20021;-76
2022/08/17 08:15:10;;;;;;;8.45;7.85;;;;;;;24.81;64.27;100589.38;6052714;23;20158;-78
2022/08/17 08:17:45;;;;;;;;;;;;;;;24.78;63.31;100593.25;6081639;23;20262;-78
2022/08/17 08:20:12;;;;;;;9.45;8.75;;;;;;;24.25;63.96;100530.38;6052115;23;19922;-78
2022/08/17 08:23:10;;;;;;;8.45;7.80;;;;;;;24.07;65.04;100512.72;6089873;23;20014;-77
2022/08/17 08:25:43;;;;;;;8.30;7.40;;;;;;;24.64;64.81;100604.72;6056098;23;20018;-78
2022/08/17 08:28:17;;;;;;;;;;;;;;;24.50;64.33;100598.25;6083396;23;20025;-78
2022/08/17 08:30:56;;;;;;;7.95;7.20;;;;;;;23.97;65.47;100540.72;6052649;23;19910;-77
2022/08/17 08:34:01;;;;;;;8.02;7.43;;;;;;;24.06;65.84;100596.81;6083679;23;20705;-77
2022/08/17 08:36:38;;;;;;;6.97;6.55;;;;;;;22.78;67.14;100400.19;6049546;23;20022;-77
2022/08/17 08:39:45;;;;;;;7.88;7.28;;;;;;;23.70;68.33;100580.25;6077873;23;20029;-78
2022/08/17 08:42:24;;;;;;;8.88;8.18;;;;;;;23.49;68.43;100567.34;6033105;23;20020;-78
2022/08/17 08:45:03;;;;;;;11.15;7.78;;;;;;;23.74;67.75;100627.16;6085089;23;20289;-78
2022/08/17 08:47:54;;;;;;;8.60;7.85;;;;;;;23.62;68.75;100621.28;6059782;23;20009;-78
2022/08/17 08:50:39;;;;;;;8.88;8.05;;;;;;;23.23;69.71;100629.09;6084103;23;20072;-79
2022/08/17 08:53:22;;;;;;;8.60;7.90;;;;;;;22.61;70.05;100522.38;6050656;23;20086;-78
2022/08/17 08:56:01;;;;;;;7.95;7.25;;;;;;;23.23;70.88;100621.06;6081454;23;20318;-78
2022/08/17 08:58:58;;;;;;;8.10;7.43;;;;;;;23.22;70.38;100619.41;6062299;23;20022;-78
2022/08/17 09:01:42;;;;;;;8.18;7.47;;;;;;;22.94;71.19;100575.97;6085680;23;20014;-78
2022/08/17 09:04:40;;;;;;;8.73;8.02;;;;;;;22.77;70.72;100532.28;6048582;23;20030;-78
2022/08/17 09:07:45;;;;;;;7.57;7.00;;;;;;;23.32;71.60;100628.13;6085683;23;20035;-78
2022/08/17 09:10:26;;;;;;;8.27;7.68;;;;;;;23.27;71.93;100617.06;6022357;23;20030;-78
2022/08/17 09:13:22;;;;;;;7.78;7.10;;;;;;;22.87;71.65;100560.59;6054123;23;20064;-77
2022/08/17 09:15:57;;;;;;;7.88;7.07;;;;;;;23.17;72.73;100603.81;6084798;23;20320;-80
2022/08/17 09:18:32;;;;;;;7.80;7.10;;;;;;;23.29;72.36;100621.25;6053489;23;20026;-78
2022/08/17 09:21:31;;;;;;;8.02;7.43;;;;;;;23.45;72.44;100624.94;6072167;23;20202;-78
2022/08/17 09:24:11;;;;;;;8.40;7.68;;;;;;;23.49;71.03;100613.75;6054433;23;20778;-78
2022/08/17 09:26:58;;;;;;;7.57;6.97;;;;;;;23.24;70.81;100563.84;6059711;23;20014;-78
2022/08/17 09:29:28;;;;;;;7.80;7.20;;;;;;;23.84;70.29;100624.31;6080354;23;20017;-78
2022/08/17 09:31:58;;;;;;;7.78;7.18;;;;;;;23.50;68.95;100550.28;6054624;23;20015;-77
2022/08/17 09:34:35;;;;;;;7.78;7.18;;;;;;;23.81;68.29;100598.69;6079084;23;20033;-77
2022/08/17 09:37:21;;;;;;;8.05;7.45;;;;;;;23.97;67.99;100619.28;6057825;23;20039;-77
2022/08/17 09:40:13;;;;;;;8.18;7.47;;;;;;;23.20;69.61;100509.78;6079367;23;20433;-77
2022/08/17 09:42:51;;;;;;;7.20;6.72;;;;;;;23.63;70.01;100631.00;6037929;23;20423;-77
2022/08/17 09:45:28;;;;;;;8.57;7.80;;;;;;;22.79;70.68;100514.22;6082046;23;22427;-79
2022/08/17 09:48:00;;;;;;;7.45;6.90;;;;;;;23.51;70.42;100618.91;6027567;23;20023;-80
2022/08/17 09:50:35;;;;;;;7.82;7.28;;;;;;;23.20;71.55;100586.59;6080851;23;20024;-78
2022/08/17 09:53:21;;;;;;;8.13;7.43;;;;;;;22.22;71.67;100432.81;6051424;23;20341;-77
2022/08/17 09:56:11;;;;;;;7.93;7.22;;;;;;;22.92;72.26;100567.28;6086735;23;20213;-78
2022/08/17 09:58:59;;;;;;;8.50;7.80;;;;;;;23.34;71.94;100644.84;6058967;23;20053;-79
2022/08/17 10:01:36;;;;;;;8.60;7.78;;;;;;;23.30;72.28;100646.19;6092277;23;20409;-78
2022/08/17 10:04:18;;;;;;;9.07;8.27;;;;;;;23.14;73.68;100648.84;6055193;23;20535;-78
2022/08/17 10:06:46;;;;;;;;;;;;;;;23.07;74.30;100651.31;6080558;23;20013;-77
2022/08/17 10:09:35;;;;;;;8.73;8.02;;;;;;;22.93;74.43;100642.03;6045220;23;20253;-77
2022/08/17 10:12:29;;;;;;;8.90;7.75;;;;;;;22.64;75.03;100623.69;6090062;23;20017;-78
2022/08/17 10:15:12;;;;;;;8.85;8.05;;;;;;;22.66;76.98;100651.13;6053857;23;20032;-78
2022/08/17 10:18:09;;;;;;;8.10;7.50;;;;;;;22.50;77.42;100635.84;6066424;23;20050;-77
2022/08/17 10:26:11;;;;;;;8.88;8.18;;;;;;;21.68;78.63;100539.09;6055509;23;20075;-78
2022/08/17 10:26:39;;;;;;;8.75;7.55;;;;;;;22.08;78.16;100586.59;6062983;23;20031;-78
2022/08/17 10:29:43;;;;;;;8.90;8.20;;;;;;;22.17;78.30;100597.34;6084567;23;20229;-78
2022/08/17 10:32:36;;;;;;;8.85;8.15;;;;;;;22.41;80.39;100634.09;6059321;23;20012;-78
2022/08/17 10:35:24;;;;;;;8.77;8.07;;;;;;;22.40;82.59;100624.41;6083988;23;20020;-77
2022/08/17 10:38:24;;;;;;;8.75;7.95;;;;;;;22.14;86.85;100614.53;6048937;23;20159;-77
2022/08/17 10:40:57;;;;;;;7.72;7.13;;;;;;;22.00;87.94;100575.88;6092387;23;20020;-78
2022/08/17 10:43:45;;;;;;;8.68;7.88;;;;;;;22.14;90.69;100595.00;6028684;23;20026;-77
2022/08/17 10:46:54;;;;;;;8.82;8.13;;;;;;;21.91;90.62;100558.97;6093346;23;20075;-78
2022/08/17 10:49:28;;;;;;;8.80;8.00;;;;;;;22.26;91.75;100589.25;6053489;23;20283;-77
2022/08/17 10:52:00;;;;;;;8.90;8.10;;;;;;;22.38;90.11;100592.50;6083371;23;20041;-78
2022/08/17 10:54:39;;;;;;;11.25;8.70;;;;;;;22.48;90.85;100598.56;6060307;23;20019;-77
2022/08/17 10:57:28;;;;;;;9.65;8.85;;;;;;;22.37;89.33;100540.03;6087950;23;20116;-78
2022/08/17 10:59:57;;;;;;;8.50;7.80;;;;;;;22.01;89.47;100507.22;6061975;23;20080;-78
2022/08/17 11:02:48;;;;;;;9.55;8.57;;;;;;;22.62;88.91;100599.78;6087559;23;20044;-78
2022/08/17 11:05:36;;;;;;;9.87;8.90;;;;;;;22.63;90.64;100597.94;6054298;23;20081;-78
2022/08/17 11:08:21;;;;;;;10.05;9.15;;;;;;;22.68;89.87;100612.50;6085037;23;20327;-76
2022/08/17 11:11:25;;;;;;;9.57;8.65;;;;;;;22.87;87.60;100611.44;6049597;23;20186;-77
2022/08/17 11:14:23;;;;;;;9.63;8.05;;;;;;;22.90;87.41;100532.66;6068729;23;20469;-77
2022/08/17 11:17:05;;;;;;;8.85;8.10;;;;;;;24.08;86.02;100596.66;6054570;23;20458;-78
2022/08/17 11:20:04;;;;;;;11.95;8.52;;;;;;;24.55;81.53;100595.84;6087422;23;20012;-78
2022/08/17 11:22:45;;;;;;;8.85;8.02;;;;;;;25.67;76.54;100582.91;6051788;23;20014;-78
2022/08/17 11:25:30;;;;;;;9.70;8.75;;;;;;;25.81;72.19;100505.16;6095167;23;20238;-77
2022/08/17 11:28:08;;;;;;;9.52;8.70;;;;;;;26.58;70.33;100593.59;6061008;23;20031;-79
2022/08/17 11:30:46;;;;;;;9.15;8.35;;;;;;;26.46;68.95;100554.69;6079182;23;20455;-78
2022/08/17 11:33:32;;;;;;;10.20;9.32;;;;;;;27.10;68.31;100582.78;6054555;23;20056;-78
2022/08/17 11:36:20;;;;;;;11.13;9.93;;;;;;;26.80;67.76;100588.25;6086223;23;20088;-78
2022/08/17 11:38:56;;;;;;;10.68;9.70;;;;;;;26.24;68.91;100586.91;6047560;23;20422;-79
2022/08/17 11:41:29;;;;;;;11.00;9.98;;;;;;;26.06;67.96;100603.41;6080363;23;20029;-79
2022/08/17 11:44:16;;;;;;;10.57;9.57;;;;;;;25.25;68.83;100505.53;6059801;23;20093;-79
2022/08/17 11:52:37;;;;;;;9.85;8.98;;;;;;;26.16;67.43;100602.28;6040906;23;20010;-74
2022/08/17 11:55:06;;;;;;;10.60;9.52;;;;;;;26.01;68.57;100610.34;6047419;23;20026;-74
2022/08/17 11:58:07;;;;;;;10.48;9.40;;;;;;;25.88;69.45;100541.06;6054054;23;20496;-74
2022/08/17 12:00:43;;;;;;;11.18;9.85;;;;;;;26.25;68.91;100603.88;6052242;23;20034;-74
2022/08/17 12:03:22;;;;;;;13.82;11.90;;;;;;;26.35;67.60;100603.59;6044476;23;20125;-74
2022/08/17 12:05:59;;;;;;;10.10;9.10;;;;;;;26.08;68.62;100619.38;6022343;23;20037;-74
2022/08/17 12:08:31;;;;;;;12.23;9.68;;;;;;;26.03;68.18;100565.28;6052504;23;20743;-75
2022/08/17 12:11:03;;;;;;;10.50;9.60;;;;;;;26.31;66.54;100564.66;6047743;23;20093;-75
2022/08/17 12:13:36;;;;;;;11.52;10.23;;;;;;;26.02;65.88;100509.81;6021927;23;20392;-74
2022/08/17 12:16:06;;;;;;;11.98;10.88;;;;;;;26.60;66.55;100577.25;6024370;23;20089;-75
2022/08/17 12:18:36;;;;;;;11.52;10.45;;;;;;;26.93;64.61;100566.03;6036279;23;20034;-74
2022/08/17 12:21:21;;;;;;;10.80;9.65;;;;;;;27.53;62.54;100604.41;6022103;23;20053;-74
2022/08/17 12:24:31;;;;;;;11.38;10.25;;;;;;;27.77;61.12;100589.66;5991453;23;20055;-74
2022/08/17 12:27:00;;;;;;;11.32;10.27;;;;;;;27.54;60.50;100576.41;6045681;23;20019;-74
2022/08/17 12:29:28;;;;;;;11.13;10.02;;;;;;;27.43;61.67;100604.72;6022921;23;20023;-75
2022/08/17 12:32:05;;;;;;;11.68;10.52;;;;;;;27.40;60.53;100565.50;6049858;23;20030;-75
2022/08/17 12:34:41;;;;;;;11.15;9.98;;;;;;;27.68;61.01;100604.31;6051701;23;20013;-76
2022/08/17 12:37:30;;;;;;;13.18;10.50;;;;;;;26.27;62.71;100465.47;6069798;23;20024;-74
2022/08/17 12:40:04;;;;;;;11.07;9.32;;;;;;;26.76;63.65;100568.13;6022694;23;20020;-74